• Join FlightAware (Why Join?)
  • Login
  • US Flag 
08:37PM EDT


 

Airport Tracker/Info


-or-


 

Live Flight TrackerFlight Track Log ✈ SKW5516 ✈ 14-Jun-2013 ✈ KDEN - KBOI

Flight Track Log - Related Links

Times and Time Zones

All times are in EDT time to prevent confusion due to time zone crossing. See the SKW5516 flight status page for this flight to view local times or setup timezone preferences in your user account.

Time Position Orientation Groundspeed Altitude Reporting Facility
EDT Latitude Longitude Course Direction KTS MPH feet Rate Location/Type
10:25AM 39.8500 -104.7500 288° West 180 207 7,100  Level Denver TRACON
10:26AM 39.8667 -104.8167 288° West 224 258 8,500 1,680 Climbing Denver TRACON
10:27AM 39.9119 -104.9019 305° West 244 281 10,600 1,920 Climbing Denver Center
10:28AM 39.9447 -104.9911 296° West 268 308 12,700 2,100 Climbing Denver Center
10:29AM 39.9594 -105.1039 280° West 292 336 15,000 2,160 Climbing Denver Center
10:30AM 39.9722 -105.2131 279° West 302 348 17,200 1,980 Climbing Denver Center
10:31AM 39.9844 -105.3253 278° West 313 360 19,100 1,920 Climbing Denver Center
10:32AM 39.9819 -105.4508 269° West 323 372 21,200 1,620 Climbing Denver Center
10:33AM 39.9786 -105.5736 268° West 341 392 22,500 1,500 Climbing Denver Center
10:34AM 39.9744 -105.7119 268° West 360 414 24,300 1,500 Climbing Denver Center
10:35AM 39.9711 -105.8458 268° West 351 404 25,700 1,500 Climbing Denver Center
10:36AM 39.9775 -105.9828 274° West 371 427 27,400 1,380 Climbing Denver Center
10:37AM 39.9864 -106.1269 275° West 385 443 28,600 1,140 Climbing Denver Center
10:38AM 39.9933 -106.2622 274° West 387 445 29,800 1,080 Climbing Denver Center
10:39AM 40.0008 -106.4053 274° West 395 455 30,900 960 Climbing Denver Center
10:40AM 40.0489 -106.5544 293° West 424 488 31,800 1,140 Climbing Denver Center
10:41AM 40.1106 -106.7081 298° West 427 491 33,300 1,320 Climbing Denver Center
10:42AM 40.1647 -106.8383 299° West 426 490 34,600 1,200 Climbing Denver Center
10:43AM 40.2217 -106.9864 297° West 411 473 35,800 660 Climbing Denver Center
10:44AM 40.2725 -107.1161 297° West 417 480 36,000 60 Climbing Denver Center
10:45AM 40.3344 -107.2719 298° West 430 495 36,000  Level Denver Center
10:46AM 40.3872 -107.4050 298° West 431 496 36,000  Level Denver Center
10:47AM 40.4478 -107.5625 297° West 433 498 36,000  Level Denver Center
10:48AM 40.4997 -107.6950 297° West 429 494 36,000  Level Denver Center
10:49AM 40.5589 -107.8475 297° West 421 484 36,000  Level Denver Center
10:51AM 40.6092 -107.9761 297° West 416 479 36,100 540 Climbing Denver Center
10:52AM 40.6672 -108.1258 297° West 411 473 37,200 840 Climbing Denver Center
10:52AM 40.7056 -108.2306 296° West 413 475 37,700 420 Climbing Salt Lake Center
10:53AM 40.7542 -108.3600 296° West 412 474 38,000 180 Climbing Salt Lake Center
10:54AM 40.7717 -108.4022 299° West 415 478 38,000  Level Denver Center
10:55AM 40.8206 -108.5350 296° West 418 481 38,000  Level Denver Center
10:56AM 40.8794 -108.6900 297° West 419 482 38,000  Level Denver Center
10:56AM 40.9114 -108.7781 296° West 415 478 38,000  Level Salt Lake Center
10:57AM 40.9681 -108.9294 296° West 412 474 38,000  Level Salt Lake Center
10:58AM 41.0161 -109.0581 296° West 406 467 38,000  Level Salt Lake Center
11:00AM 41.0714 -109.2092 296° West 405 466 38,000  Level Salt Lake Center
11:01AM 41.1183 -109.3389 296° West 405 466 38,000  Level Salt Lake Center
11:02AM 41.1658 -109.4681 296° West 405 466 38,000  Level Salt Lake Center
11:03AM 41.2203 -109.6178 296° West 402 463 38,000  Level Salt Lake Center
11:04AM 41.2669 -109.7461 296° West 400 460 38,000  Level Salt Lake Center
11:05AM 41.3203 -109.8942 296° West 398 458 38,000  Level Salt Lake Center
11:06AM 41.3658 -110.0200 296° West 397 457 38,000  Level Salt Lake Center
11:07AM 41.4189 -110.1672 296° West 395 455 38,000  Level Salt Lake Center
11:08AM 41.4631 -110.2925 295° West 391 450 38,000  Level Salt Lake Center
11:09AM 41.5061 -110.4181 295° West 389 448 38,000  Level Salt Lake Center
11:10AM 41.5586 -110.5633 296° West 389 448 38,000  Level Salt Lake Center
11:11AM 41.6019 -110.6914 294° West 393 452 38,000  Level Salt Lake Center
11:12AM 41.6550 -110.8389 296° West 394 453 38,000  Level Salt Lake Center
11:13AM 41.6986 -110.9644 295° West 393 452 38,000  Level Salt Lake Center
11:14AM 41.7447 -111.0967 295° West 395 455 38,000  Level Salt Lake Center
11:15AM 41.8000 -111.2567 295° West 395 455 38,000  Level Salt Lake Center
11:16AM 41.8450 -111.3908 294° West 398 458 38,000  Level Salt Lake Center
11:17AM 41.8903 -111.5244 295° West 397 457 38,000  Level Salt Lake Center
11:18AM 41.9361 -111.6578 295° West 396 456 38,000  Level Salt Lake Center
11:19AM 41.9806 -111.7919 294° West 396 456 38,000  Level Salt Lake Center
11:20AM 42.0264 -111.9264 295° West 397 457 38,000  Level Salt Lake Center
11:21AM 42.0800 -112.0878 294° West 396 456 38,000  Level Salt Lake Center
11:22AM 42.1250 -112.2242 294° West 399 459 38,000  Level Salt Lake Center
11:23AM 42.1708 -112.3592 295° West 400 460 38,000  Level Salt Lake Center
11:24AM 42.2167 -112.4936 295° West 397 457 38,000  Level Salt Lake Center
11:25AM 42.2686 -112.6261 298° West 400 460 38,000  Level Salt Lake Center
11:26AM 42.3183 -112.7592 297° West 399 459 38,000  Level Salt Lake Center
11:27AM 42.3794 -112.9181 298° West 398 458 38,000  Level Salt Lake Center
11:28AM 42.4294 -113.0514 297° West 398 458 38,000  Level Salt Lake Center
11:29AM 42.4792 -113.1833 297° West 395 455 38,000 -300 Level Salt Lake Center
11:30AM 42.5289 -113.3156 297° West 395 455 37,400 -840 Descending Salt Lake Center
11:32AM 42.5789 -113.4461 298° West 394 453 36,300 -1,080 Descending Salt Lake Center
11:33AM 42.6356 -113.5964 297° West 378 435 35,200 -1,020 Descending Salt Lake Center
11:34AM 42.6808 -113.7197 297° West 368 423 34,200 -1,020 Descending Salt Lake Center
11:35AM 42.7264 -113.8417 297° West 364 419 33,100 -1,020 Descending Salt Lake Center
11:36AM 42.7703 -113.9700 295° West 369 425 32,100 -1,200 Descending Salt Lake Center
11:37AM 42.8167 -114.0981 296° West 378 435 30,700 -1,380 Descending Salt Lake Center
11:38AM 42.8633 -114.2300 296° West 387 445 29,300 -1,680 Descending Salt Lake Center
11:39AM 42.9225 -114.3875 297° West 389 448 27,300 -1,800 Descending Salt Lake Center
11:40AM 42.9719 -114.5228 297° West 390 449 25,700 -1,560 Descending Salt Lake Center
11:41AM 43.0167 -114.6475 296° West 382 440 24,200 -1,620 Descending Salt Lake Center
11:42AM 43.0656 -114.7842 296° West 354 407 22,400 -1,680 Descending Salt Lake Center
11:43AM 43.1025 -114.8931 295° West 332 382 20,800 -1,620 Descending Salt Lake Center
11:44AM 43.1444 -115.0092 296° West 313 360 19,100 -1,500 Descending Salt Lake Center
11:45AM 43.1825 -115.1197 295° West 310 357 17,700 -1,200 Descending Salt Lake Center
11:46AM 43.2178 -115.2197 296° West 301 346 16,700 -1,020 Descending Salt Lake Center
11:47AM 43.2539 -115.3236 296° West 293 337 15,600 -1,020 Descending Salt Lake Center
11:48AM 43.2917 -115.4286 296° West 294 338 14,600 -1,020 Descending Salt Lake Center
11:49AM 43.3286 -115.5367 295° West 299 344 13,500 -1,140 Descending Salt Lake Center
11:50AM 43.3636 -115.6356 296° West 282 325 12,300 -1,260 Descending Salt Lake Center
11:51AM 43.3964 -115.7314 295° West 268 308 11,000 -1,320 Descending Salt Lake Center
11:52AM 43.4286 -115.8242 296° West 260 299 9,600 -1,320 Descending Salt Lake Center
11:53AM 43.4586 -115.9081 296° West 236 272 8,300 -1,260 Descending Salt Lake Center
11:54AM 43.4794 -115.9722 294° West 199 229 7,000 -1,260 Descending Salt Lake Center
11:55AM 43.5014 -116.0356 296° West 180 207 5,800 -1,140 Descending Salt Lake Center
11:56AM 43.5214 -116.0933 296° West 165 190 4,700 -960 Descending Salt Lake Center
11:57AM 43.5356 -116.1397 293° West 133 153 3,900 -540 Descending Salt Lake Center
11:58AM 43.5494 -116.1831 294° West 128 147 3,700 -240 Descending Salt Lake Center
12:00PM 43.5500 -116.2167 270° West  Level FlightAware Approximate
12:07PM 43.5644 -116.2229 270° West  Level Estimated
12:08PM 43.5644 -116.2229 270° West  Level Estimated
12:09PM 43.5644 -116.2229 270° West  Level Estimated